sensor_id;sensor_type;location;lat;lon;timestamp;P1;durP1;ratioP1;P2;durP2;ratioP2
23288;SDS011;11813;50.834;4.280;2023-04-25T00:02:02;19.70;;;4.70;;
23288;SDS011;11813;50.834;4.280;2023-04-25T00:04:28;14.80;;;4.77;;
23288;SDS011;11813;50.834;4.280;2023-04-25T00:06:54;14.73;;;5.07;;
23288;SDS011;11813;50.834;4.280;2023-04-25T00:09:20;18.90;;;5.13;;
23288;SDS011;11813;50.834;4.280;2023-04-25T00:11:47;16.90;;;5.37;;
23288;SDS011;11813;50.834;4.280;2023-04-25T00:14:12;18.60;;;6.53;;
23288;SDS011;11813;50.834;4.280;2023-04-25T00:16:38;17.73;;;6.00;;
23288;SDS011;11813;50.834;4.280;2023-04-25T00:19:06;22.57;;;5.23;;
23288;SDS011;11813;50.834;4.280;2023-04-25T00:21:32;26.37;;;5.17;;
23288;SDS011;11813;50.834;4.280;2023-04-25T00:23:58;12.43;;;5.00;;
23288;SDS011;11813;50.834;4.280;2023-04-25T00:26:25;18.13;;;5.50;;
23288;SDS011;11813;50.834;4.280;2023-04-25T00:28:51;20.33;;;4.83;;
23288;SDS011;11813;50.834;4.280;2023-04-25T00:31:16;17.80;;;4.97;;
23288;SDS011;11813;50.834;4.280;2023-04-25T00:33:42;19.43;;;5.10;;
23288;SDS011;11813;50.834;4.280;2023-04-25T00:36:08;21.20;;;5.30;;
23288;SDS011;11813;50.834;4.280;2023-04-25T00:38:34;13.47;;;4.67;;
23288;SDS011;11813;50.834;4.280;2023-04-25T00:41:00;18.27;;;5.00;;
23288;SDS011;11813;50.834;4.280;2023-04-25T00:43:27;15.17;;;4.83;;
23288;SDS011;11813;50.834;4.280;2023-04-25T00:45:55;23.00;;;5.17;;
23288;SDS011;11813;50.834;4.280;2023-04-25T00:48:22;18.27;;;5.17;;
23288;SDS011;11813;50.834;4.280;2023-04-25T00:50:52;16.57;;;5.33;;
23288;SDS011;11813;50.834;4.280;2023-04-25T00:53:22;15.67;;;4.73;;
23288;SDS011;11813;50.834;4.280;2023-04-25T00:55:49;17.17;;;5.70;;
23288;SDS011;11813;50.834;4.280;2023-04-25T00:58:19;21.97;;;5.27;;
23288;SDS011;11813;50.834;4.280;2023-04-25T01:00:46;17.17;;;5.40;;
23288;SDS011;11813;50.834;4.280;2023-04-25T01:03:13;18.37;;;4.90;;
23288;SDS011;11813;50.834;4.280;2023-04-25T01:05:41;16.23;;;5.27;;
23288;SDS011;11813;50.834;4.280;2023-04-25T01:08:08;17.90;;;5.33;;
23288;SDS011;11813;50.834;4.280;2023-04-25T01:10:35;17.80;;;5.33;;
23288;SDS011;11813;50.834;4.280;2023-04-25T01:13:01;16.20;;;5.30;;
23288;SDS011;11813;50.834;4.280;2023-04-25T01:15:27;16.67;;;5.27;;
23288;SDS011;11813;50.834;4.280;2023-04-25T01:17:53;17.37;;;5.53;;
23288;SDS011;11813;50.834;4.280;2023-04-25T01:20:21;15.87;;;5.53;;
23288;SDS011;11813;50.834;4.280;2023-04-25T01:22:48;19.53;;;4.97;;
23288;SDS011;11813;50.834;4.280;2023-04-25T01:25:14;15.77;;;5.73;;
23288;SDS011;11813;50.834;4.280;2023-04-25T01:27:40;18.00;;;5.47;;
23288;SDS011;11813;50.834;4.280;2023-04-25T01:30:06;18.10;;;4.93;;
23288;SDS011;11813;50.834;4.280;2023-04-25T01:32:33;14.40;;;5.13;;
23288;SDS011;11813;50.834;4.280;2023-04-25T01:35:04;13.73;;;5.00;;
23288;SDS011;11813;50.834;4.280;2023-04-25T01:37:34;12.50;;;5.47;;
23288;SDS011;11813;50.834;4.280;2023-04-25T01:40:10;14.50;;;5.13;;
23288;SDS011;11813;50.834;4.280;2023-04-25T01:42:38;14.23;;;5.83;;
23288;SDS011;11813;50.834;4.280;2023-04-25T01:45:06;16.23;;;5.23;;
23288;SDS011;11813;50.834;4.280;2023-04-25T01:47:33;21.53;;;5.00;;
23288;SDS011;11813;50.834;4.280;2023-04-25T01:50:00;18.80;;;6.27;;
23288;SDS011;11813;50.834;4.280;2023-04-25T01:52:26;16.60;;;6.83;;
23288;SDS011;11813;50.834;4.280;2023-04-25T01:54:52;20.47;;;6.07;;
23288;SDS011;11813;50.834;4.280;2023-04-25T01:57:19;21.87;;;5.97;;
23288;SDS011;11813;50.834;4.280;2023-04-25T01:59:45;18.30;;;5.83;;
23288;SDS011;11813;50.834;4.280;2023-04-25T02:02:11;19.33;;;6.07;;
23288;SDS011;11813;50.834;4.280;2023-04-25T02:04:36;13.27;;;5.37;;
23288;SDS011;11813;50.834;4.280;2023-04-25T02:07:03;17.23;;;5.80;;
23288;SDS011;11813;50.834;4.280;2023-04-25T02:09:28;21.50;;;6.00;;
23288;SDS011;11813;50.834;4.280;2023-04-25T02:11:54;17.73;;;5.53;;
23288;SDS011;11813;50.834;4.280;2023-04-25T02:14:20;16.93;;;5.90;;
23288;SDS011;11813;50.834;4.280;2023-04-25T02:16:45;24.07;;;5.80;;
23288;SDS011;11813;50.834;4.280;2023-04-25T02:19:11;25.03;;;5.80;;
23288;SDS011;11813;50.834;4.280;2023-04-25T02:21:37;22.07;;;5.63;;
23288;SDS011;11813;50.834;4.280;2023-04-25T02:24:03;21.70;;;5.57;;
23288;SDS011;11813;50.834;4.280;2023-04-25T02:26:29;20.13;;;5.90;;
23288;SDS011;11813;50.834;4.280;2023-04-25T02:28:56;24.23;;;7.03;;
23288;SDS011;11813;50.834;4.280;2023-04-25T02:31:22;17.27;;;4.90;;
23288;SDS011;11813;50.834;4.280;2023-04-25T02:33:47;15.27;;;5.53;;
23288;SDS011;11813;50.834;4.280;2023-04-25T02:36:13;18.30;;;5.40;;
23288;SDS011;11813;50.834;4.280;2023-04-25T02:38:39;17.20;;;5.03;;
23288;SDS011;11813;50.834;4.280;2023-04-25T02:41:05;17.53;;;5.40;;
23288;SDS011;11813;50.834;4.280;2023-04-25T02:43:31;20.10;;;6.13;;
23288;SDS011;11813;50.834;4.280;2023-04-25T02:45:57;19.93;;;6.10;;
23288;SDS011;11813;50.834;4.280;2023-04-25T02:48:22;17.53;;;6.30;;
23288;SDS011;11813;50.834;4.280;2023-04-25T02:50:48;21.00;;;5.67;;
23288;SDS011;11813;50.834;4.280;2023-04-25T02:53:14;15.93;;;5.70;;
23288;SDS011;11813;50.834;4.280;2023-04-25T02:55:40;18.40;;;5.77;;
23288;SDS011;11813;50.834;4.280;2023-04-25T02:58:05;17.70;;;6.20;;
23288;SDS011;11813;50.834;4.280;2023-04-25T03:00:31;19.80;;;5.43;;
23288;SDS011;11813;50.834;4.280;2023-04-25T03:02:56;25.47;;;5.60;;
23288;SDS011;11813;50.834;4.280;2023-04-25T03:05:22;19.17;;;6.20;;
23288;SDS011;11813;50.834;4.280;2023-04-25T03:07:48;19.00;;;5.90;;
23288;SDS011;11813;50.834;4.280;2023-04-25T03:10:13;24.70;;;5.77;;
23288;SDS011;11813;50.834;4.280;2023-04-25T03:12:39;20.27;;;5.73;;
23288;SDS011;11813;50.834;4.280;2023-04-25T03:15:05;22.47;;;5.53;;
23288;SDS011;11813;50.834;4.280;2023-04-25T03:17:31;15.37;;;4.97;;
23288;SDS011;11813;50.834;4.280;2023-04-25T03:19:57;18.63;;;5.13;;
23288;SDS011;11813;50.834;4.280;2023-04-25T03:22:23;18.70;;;5.53;;
23288;SDS011;11813;50.834;4.280;2023-04-25T03:24:49;20.43;;;6.37;;
23288;SDS011;11813;50.834;4.280;2023-04-25T03:27:15;19.30;;;5.40;;
23288;SDS011;11813;50.834;4.280;2023-04-25T03:29:40;16.67;;;5.87;;
23288;SDS011;11813;50.834;4.280;2023-04-25T03:32:06;22.20;;;5.43;;
23288;SDS011;11813;50.834;4.280;2023-04-25T03:34:32;10.93;;;5.13;;
23288;SDS011;11813;50.834;4.280;2023-04-25T03:36:57;16.33;;;5.13;;
23288;SDS011;11813;50.834;4.280;2023-04-25T03:39:23;23.50;;;5.53;;
23288;SDS011;11813;50.834;4.280;2023-04-25T03:41:49;25.83;;;6.30;;
23288;SDS011;11813;50.834;4.280;2023-04-25T03:44:14;23.03;;;5.73;;
23288;SDS011;11813;50.834;4.280;2023-04-25T03:46:40;24.40;;;5.50;;
23288;SDS011;11813;50.834;4.280;2023-04-25T03:49:05;18.50;;;5.60;;
23288;SDS011;11813;50.834;4.280;2023-04-25T03:51:31;20.13;;;5.40;;
23288;SDS011;11813;50.834;4.280;2023-04-25T03:53:57;16.30;;;4.87;;
23288;SDS011;11813;50.834;4.280;2023-04-25T03:56:23;14.50;;;5.03;;
23288;SDS011;11813;50.834;4.280;2023-04-25T03:58:49;15.07;;;5.17;;
23288;SDS011;11813;50.834;4.280;2023-04-25T04:01:15;19.83;;;5.60;;
23288;SDS011;11813;50.834;4.280;2023-04-25T04:03:40;23.20;;;5.80;;
23288;SDS011;11813;50.834;4.280;2023-04-25T04:06:06;18.70;;;5.70;;
23288;SDS011;11813;50.834;4.280;2023-04-25T04:08:32;20.03;;;5.40;;
23288;SDS011;11813;50.834;4.280;2023-04-25T04:10:58;19.23;;;4.93;;
23288;SDS011;11813;50.834;4.280;2023-04-25T04:13:27;18.10;;;5.50;;
23288;SDS011;11813;50.834;4.280;2023-04-25T04:15:53;19.77;;;5.43;;
23288;SDS011;11813;50.834;4.280;2023-04-25T04:18:19;20.90;;;5.43;;
23288;SDS011;11813;50.834;4.280;2023-04-25T04:20:44;17.00;;;4.77;;
23288;SDS011;11813;50.834;4.280;2023-04-25T04:23:10;20.20;;;5.17;;
23288;SDS011;11813;50.834;4.280;2023-04-25T04:25:36;15.10;;;4.43;;
23288;SDS011;11813;50.834;4.280;2023-04-25T04:28:02;16.33;;;4.77;;
23288;SDS011;11813;50.834;4.280;2023-04-25T04:30:28;20.53;;;5.17;;
23288;SDS011;11813;50.834;4.280;2023-04-25T04:32:55;14.27;;;5.00;;
23288;SDS011;11813;50.834;4.280;2023-04-25T04:35:21;18.77;;;5.53;;
23288;SDS011;11813;50.834;4.280;2023-04-25T04:37:47;14.73;;;4.30;;
23288;SDS011;11813;50.834;4.280;2023-04-25T04:40:13;16.73;;;4.43;;
23288;SDS011;11813;50.834;4.280;2023-04-25T04:42:42;18.47;;;5.00;;
23288;SDS011;11813;50.834;4.280;2023-04-25T04:45:10;15.80;;;5.10;;
23288;SDS011;11813;50.834;4.280;2023-04-25T04:47:36;16.30;;;5.13;;
23288;SDS011;11813;50.834;4.280;2023-04-25T04:50:02;18.13;;;5.20;;
23288;SDS011;11813;50.834;4.280;2023-04-25T04:52:29;21.37;;;5.57;;
23288;SDS011;11813;50.834;4.280;2023-04-25T04:54:55;17.67;;;5.00;;
23288;SDS011;11813;50.834;4.280;2023-04-25T04:57:21;14.90;;;5.03;;
23288;SDS011;11813;50.834;4.280;2023-04-25T04:59:47;16.33;;;5.00;;
23288;SDS011;11813;50.834;4.280;2023-04-25T05:02:12;21.30;;;5.37;;
23288;SDS011;11813;50.834;4.280;2023-04-25T05:04:38;16.73;;;5.43;;
23288;SDS011;11813;50.834;4.280;2023-04-25T05:07:03;14.73;;;4.87;;
23288;SDS011;11813;50.834;4.280;2023-04-25T05:09:29;14.87;;;5.00;;
23288;SDS011;11813;50.834;4.280;2023-04-25T05:11:55;15.17;;;4.40;;
23288;SDS011;11813;50.834;4.280;2023-04-25T05:14:20;16.20;;;4.03;;
23288;SDS011;11813;50.834;4.280;2023-04-25T05:16:47;18.07;;;4.50;;
23288;SDS011;11813;50.834;4.280;2023-04-25T05:19:13;12.70;;;4.30;;
23288;SDS011;11813;50.834;4.280;2023-04-25T05:21:39;17.77;;;4.57;;
23288;SDS011;11813;50.834;4.280;2023-04-25T05:24:05;11.40;;;4.63;;
23288;SDS011;11813;50.834;4.280;2023-04-25T05:26:31;15.30;;;4.37;;
23288;SDS011;11813;50.834;4.280;2023-04-25T05:28:59;14.37;;;3.90;;
23288;SDS011;11813;50.834;4.280;2023-04-25T05:31:25;14.83;;;4.00;;
23288;SDS011;11813;50.834;4.280;2023-04-25T05:33:51;16.20;;;4.70;;
23288;SDS011;11813;50.834;4.280;2023-04-25T05:36:18;11.30;;;4.53;;
23288;SDS011;11813;50.834;4.280;2023-04-25T05:38:44;15.87;;;5.37;;
23288;SDS011;11813;50.834;4.280;2023-04-25T05:41:10;13.90;;;4.80;;
23288;SDS011;11813;50.834;4.280;2023-04-25T05:43:36;15.23;;;4.83;;
23288;SDS011;11813;50.834;4.280;2023-04-25T05:46:02;9.53;;;4.63;;
23288;SDS011;11813;50.834;4.280;2023-04-25T05:48:27;16.13;;;5.27;;
23288;SDS011;11813;50.834;4.280;2023-04-25T05:50:53;11.43;;;5.37;;
23288;SDS011;11813;50.834;4.280;2023-04-25T05:53:19;22.30;;;6.17;;
23288;SDS011;11813;50.834;4.280;2023-04-25T05:55:46;18.20;;;4.47;;
23288;SDS011;11813;50.834;4.280;2023-04-25T05:58:12;15.47;;;3.97;;
23288;SDS011;11813;50.834;4.280;2023-04-25T06:00:37;15.27;;;5.03;;
23288;SDS011;11813;50.834;4.280;2023-04-25T06:03:03;13.80;;;4.30;;
23288;SDS011;11813;50.834;4.280;2023-04-25T06:05:29;12.50;;;3.90;;
23288;SDS011;11813;50.834;4.280;2023-04-25T06:07:55;8.83;;;4.07;;
23288;SDS011;11813;50.834;4.280;2023-04-25T06:10:21;8.10;;;3.50;;
23288;SDS011;11813;50.834;4.280;2023-04-25T06:12:47;15.70;;;4.40;;
23288;SDS011;11813;50.834;4.280;2023-04-25T06:15:13;18.80;;;4.63;;
23288;SDS011;11813;50.834;4.280;2023-04-25T06:17:40;12.97;;;4.20;;
23288;SDS011;11813;50.834;4.280;2023-04-25T06:20:06;14.03;;;4.70;;
23288;SDS011;11813;50.834;4.280;2023-04-25T06:22:33;11.57;;;3.77;;
23288;SDS011;11813;50.834;4.280;2023-04-25T06:24:58;12.17;;;5.07;;
23288;SDS011;11813;50.834;4.280;2023-04-25T06:27:25;17.83;;;4.17;;
23288;SDS011;11813;50.834;4.280;2023-04-25T06:29:50;17.17;;;4.33;;
23288;SDS011;11813;50.834;4.280;2023-04-25T06:32:16;14.70;;;4.97;;
23288;SDS011;11813;50.834;4.280;2023-04-25T06:34:43;11.07;;;5.13;;
23288;SDS011;11813;50.834;4.280;2023-04-25T06:37:08;15.30;;;4.93;;
23288;SDS011;11813;50.834;4.280;2023-04-25T06:39:34;10.27;;;4.27;;
23288;SDS011;11813;50.834;4.280;2023-04-25T06:42:00;12.53;;;4.53;;
23288;SDS011;11813;50.834;4.280;2023-04-25T06:44:25;22.97;;;4.60;;
23288;SDS011;11813;50.834;4.280;2023-04-25T06:46:53;15.07;;;4.67;;
23288;SDS011;11813;50.834;4.280;2023-04-25T06:49:19;16.53;;;4.97;;
23288;SDS011;11813;50.834;4.280;2023-04-25T06:51:44;11.07;;;4.40;;
23288;SDS011;11813;50.834;4.280;2023-04-25T06:54:10;15.10;;;5.17;;
23288;SDS011;11813;50.834;4.280;2023-04-25T06:56:36;15.17;;;4.47;;
23288;SDS011;11813;50.834;4.280;2023-04-25T06:59:01;18.13;;;4.50;;
23288;SDS011;11813;50.834;4.280;2023-04-25T07:01:27;17.80;;;4.33;;
23288;SDS011;11813;50.834;4.280;2023-04-25T07:03:52;12.10;;;4.50;;
23288;SDS011;11813;50.834;4.280;2023-04-25T07:06:18;19.37;;;4.93;;
23288;SDS011;11813;50.834;4.280;2023-04-25T07:08:44;15.50;;;4.10;;
23288;SDS011;11813;50.834;4.280;2023-04-25T07:11:10;16.77;;;3.50;;
23288;SDS011;11813;50.834;4.280;2023-04-25T07:13:35;17.30;;;4.23;;
23288;SDS011;11813;50.834;4.280;2023-04-25T07:16:01;10.83;;;3.83;;
23288;SDS011;11813;50.834;4.280;2023-04-25T07:18:28;11.93;;;3.90;;
23288;SDS011;11813;50.834;4.280;2023-04-25T07:20:53;14.60;;;3.47;;
23288;SDS011;11813;50.834;4.280;2023-04-25T07:23:19;12.00;;;3.87;;
23288;SDS011;11813;50.834;4.280;2023-04-25T07:25:45;13.07;;;3.77;;
23288;SDS011;11813;50.834;4.280;2023-04-25T07:28:11;11.20;;;3.57;;
23288;SDS011;11813;50.834;4.280;2023-04-25T07:30:36;10.70;;;4.27;;
23288;SDS011;11813;50.834;4.280;2023-04-25T07:33:02;9.73;;;3.90;;
23288;SDS011;11813;50.834;4.280;2023-04-25T07:35:28;13.87;;;3.53;;
23288;SDS011;11813;50.834;4.280;2023-04-25T07:37:53;11.67;;;3.97;;
23288;SDS011;11813;50.834;4.280;2023-04-25T07:40:19;10.10;;;2.90;;
23288;SDS011;11813;50.834;4.280;2023-04-25T07:42:45;10.63;;;3.67;;
23288;SDS011;11813;50.834;4.280;2023-04-25T07:45:10;13.87;;;3.17;;
23288;SDS011;11813;50.834;4.280;2023-04-25T07:47:36;8.87;;;3.10;;
23288;SDS011;11813;50.834;4.280;2023-04-25T07:50:02;12.23;;;3.10;;
23288;SDS011;11813;50.834;4.280;2023-04-25T07:52:28;8.83;;;3.00;;
23288;SDS011;11813;50.834;4.280;2023-04-25T07:54:54;12.00;;;3.13;;
23288;SDS011;11813;50.834;4.280;2023-04-25T07:57:19;10.57;;;2.93;;
23288;SDS011;11813;50.834;4.280;2023-04-25T07:59:45;12.33;;;2.83;;
23288;SDS011;11813;50.834;4.280;2023-04-25T08:02:11;12.27;;;3.73;;
23288;SDS011;11813;50.834;4.280;2023-04-25T08:04:36;7.87;;;2.93;;
23288;SDS011;11813;50.834;4.280;2023-04-25T08:07:02;10.80;;;3.17;;
23288;SDS011;11813;50.834;4.280;2023-04-25T08:09:28;14.63;;;3.17;;
23288;SDS011;11813;50.834;4.280;2023-04-25T08:11:54;12.37;;;3.33;;
23288;SDS011;11813;50.834;4.280;2023-04-25T08:14:19;9.77;;;3.03;;
23288;SDS011;11813;50.834;4.280;2023-04-25T08:16:45;10.60;;;4.50;;
23288;SDS011;11813;50.834;4.280;2023-04-25T08:19:11;16.67;;;3.97;;
23288;SDS011;11813;50.834;4.280;2023-04-25T08:21:37;14.63;;;3.73;;
23288;SDS011;11813;50.834;4.280;2023-04-25T08:24:02;12.63;;;2.63;;
23288;SDS011;11813;50.834;4.280;2023-04-25T08:26:29;8.97;;;3.00;;
23288;SDS011;11813;50.834;4.280;2023-04-25T08:28:54;12.97;;;3.10;;
23288;SDS011;11813;50.834;4.280;2023-04-25T08:31:20;11.80;;;3.10;;
23288;SDS011;11813;50.834;4.280;2023-04-25T08:33:46;10.70;;;3.17;;
23288;SDS011;11813;50.834;4.280;2023-04-25T08:36:11;12.13;;;3.33;;
23288;SDS011;11813;50.834;4.280;2023-04-25T08:38:37;13.43;;;3.40;;
23288;SDS011;11813;50.834;4.280;2023-04-25T08:41:03;10.13;;;2.83;;
23288;SDS011;11813;50.834;4.280;2023-04-25T08:43:31;12.30;;;2.90;;
23288;SDS011;11813;50.834;4.280;2023-04-25T08:46:00;16.00;;;2.63;;
23288;SDS011;11813;50.834;4.280;2023-04-25T08:48:29;11.63;;;3.10;;
23288;SDS011;11813;50.834;4.280;2023-04-25T08:50:58;6.47;;;2.80;;
23288;SDS011;11813;50.834;4.280;2023-04-25T08:55:52;6.37;;;2.60;;
23288;SDS011;11813;50.834;4.280;2023-04-25T08:58:19;12.40;;;2.77;;
23288;SDS011;11813;50.834;4.280;2023-04-25T09:00:46;11.00;;;3.03;;
23288;SDS011;11813;50.834;4.280;2023-04-25T09:03:12;11.23;;;2.73;;
23288;SDS011;11813;50.834;4.280;2023-04-25T09:05:39;8.83;;;2.73;;
23288;SDS011;11813;50.834;4.280;2023-04-25T09:08:05;11.47;;;3.07;;
23288;SDS011;11813;50.834;4.280;2023-04-25T09:10:31;7.50;;;2.30;;
23288;SDS011;11813;50.834;4.280;2023-04-25T09:15:38;11.47;;;3.37;;
23288;SDS011;11813;50.834;4.280;2023-04-25T09:18:23;9.07;;;3.70;;
23288;SDS011;11813;50.834;4.280;2023-04-25T09:20:56;10.73;;;2.87;;
23288;SDS011;11813;50.834;4.280;2023-04-25T09:23:38;8.70;;;2.87;;
23288;SDS011;11813;50.834;4.280;2023-04-25T09:26:15;7.63;;;3.10;;
23288;SDS011;11813;50.834;4.280;2023-04-25T09:28:42;11.30;;;2.80;;
23288;SDS011;11813;50.834;4.280;2023-04-25T09:31:09;11.67;;;2.70;;
23288;SDS011;11813;50.834;4.280;2023-04-25T09:33:40;11.27;;;2.87;;
23288;SDS011;11813;50.834;4.280;2023-04-25T09:36:07;15.90;;;3.00;;
23288;SDS011;11813;50.834;4.280;2023-04-25T09:38:43;9.90;;;2.27;;
23288;SDS011;11813;50.834;4.280;2023-04-25T09:41:10;9.00;;;2.53;;
23288;SDS011;11813;50.834;4.280;2023-04-25T09:43:36;8.70;;;2.40;;
23288;SDS011;11813;50.834;4.280;2023-04-25T09:46:02;6.37;;;2.23;;
23288;SDS011;11813;50.834;4.280;2023-04-25T09:48:32;8.40;;;2.10;;
23288;SDS011;11813;50.834;4.280;2023-04-25T09:51:05;8.93;;;2.67;;
23288;SDS011;11813;50.834;4.280;2023-04-25T09:53:41;16.13;;;2.77;;
23288;SDS011;11813;50.834;4.280;2023-04-25T09:56:09;8.13;;;2.80;;
23288;SDS011;11813;50.834;4.280;2023-04-25T09:58:36;4.70;;;2.77;;
23288;SDS011;11813;50.834;4.280;2023-04-25T10:01:07;9.03;;;2.83;;
23288;SDS011;11813;50.834;4.280;2023-04-25T10:03:39;19.00;;;5.60;;
23288;SDS011;11813;50.834;4.280;2023-04-25T10:06:09;5.60;;;2.67;;
23288;SDS011;11813;50.834;4.280;2023-04-25T10:08:42;9.27;;;2.53;;
23288;SDS011;11813;50.834;4.280;2023-04-25T10:11:09;6.60;;;2.53;;
23288;SDS011;11813;50.834;4.280;2023-04-25T10:13:35;6.53;;;2.07;;
23288;SDS011;11813;50.834;4.280;2023-04-25T10:16:02;5.77;;;2.10;;
23288;SDS011;11813;50.834;4.280;2023-04-25T10:18:30;5.43;;;2.03;;
23288;SDS011;11813;50.834;4.280;2023-04-25T10:21:00;7.47;;;1.97;;
23288;SDS011;11813;50.834;4.280;2023-04-25T10:23:27;9.27;;;2.87;;
23288;SDS011;11813;50.834;4.280;2023-04-25T10:25:55;78.53;;;16.83;;
23288;SDS011;11813;50.834;4.280;2023-04-25T10:28:21;7.50;;;2.43;;
23288;SDS011;11813;50.834;4.280;2023-04-25T10:31:03;36.80;;;8.20;;
23288;SDS011;11813;50.834;4.280;2023-04-25T10:33:41;22.60;;;4.23;;
23288;SDS011;11813;50.834;4.280;2023-04-25T10:36:18;6.97;;;2.60;;
23288;SDS011;11813;50.834;4.280;2023-04-25T10:38:47;7.13;;;2.40;;
23288;SDS011;11813;50.834;4.280;2023-04-25T10:41:13;13.93;;;2.10;;
23288;SDS011;11813;50.834;4.280;2023-04-25T10:43:43;9.93;;;2.53;;
23288;SDS011;11813;50.834;4.280;2023-04-25T10:46:25;8.43;;;1.80;;
23288;SDS011;11813;50.834;4.280;2023-04-25T10:48:53;4.30;;;2.03;;
23288;SDS011;11813;50.834;4.280;2023-04-25T10:51:24;12.87;;;2.20;;
23288;SDS011;11813;50.834;4.280;2023-04-25T10:53:57;7.13;;;2.13;;
23288;SDS011;11813;50.834;4.280;2023-04-25T10:56:27;6.30;;;2.33;;
23288;SDS011;11813;50.834;4.280;2023-04-25T10:59:16;8.23;;;2.40;;
23288;SDS011;11813;50.834;4.280;2023-04-25T11:01:44;6.40;;;0.97;;
23288;SDS011;11813;50.834;4.280;2023-04-25T11:04:20;2.00;;;1.27;;
23288;SDS011;11813;50.834;4.280;2023-04-25T11:09:33;0.70;;;0.70;;
23288;SDS011;11813;50.834;4.280;2023-04-25T11:12:03;1.27;;;0.83;;
23288;SDS011;11813;50.834;4.280;2023-04-25T11:14:30;2.63;;;0.70;;
23288;SDS011;11813;50.834;4.280;2023-04-25T11:16:56;3.33;;;1.00;;
23288;SDS011;11813;50.834;4.280;2023-04-25T11:19:23;2.77;;;1.40;;
23288;SDS011;11813;50.834;4.280;2023-04-25T11:21:49;2.60;;;1.27;;
23288;SDS011;11813;50.834;4.280;2023-04-25T11:24:16;0.50;;;0.50;;
23288;SDS011;11813;50.834;4.280;2023-04-25T11:26:42;3.90;;;0.70;;
23288;SDS011;11813;50.834;4.280;2023-04-25T11:29:08;3.53;;;0.93;;
23288;SDS011;11813;50.834;4.280;2023-04-25T11:31:34;0.40;;;0.40;;
23288;SDS011;11813;50.834;4.280;2023-04-25T11:34:00;1.17;;;0.60;;
23288;SDS011;11813;50.834;4.280;2023-04-25T11:36:25;1.07;;;0.80;;
23288;SDS011;11813;50.834;4.280;2023-04-25T11:38:52;4.37;;;1.17;;
23288;SDS011;11813;50.834;4.280;2023-04-25T11:41:19;0.37;;;0.37;;
23288;SDS011;11813;50.834;4.280;2023-04-25T11:43:45;3.33;;;1.63;;
23288;SDS011;11813;50.834;4.280;2023-04-25T11:46:11;2.60;;;1.20;;
23288;SDS011;11813;50.834;4.280;2023-04-25T11:48:40;2.20;;;1.37;;
23288;SDS011;11813;50.834;4.280;2023-04-25T11:51:06;5.80;;;2.53;;
23288;SDS011;11813;50.834;4.280;2023-04-25T11:53:32;3.27;;;1.73;;
23288;SDS011;11813;50.834;4.280;2023-04-25T11:55:58;7.23;;;1.70;;
23288;SDS011;11813;50.834;4.280;2023-04-25T11:58:24;5.37;;;1.87;;
23288;SDS011;11813;50.834;4.280;2023-04-25T12:00:51;8.73;;;2.10;;
23288;SDS011;11813;50.834;4.280;2023-04-25T12:03:17;4.80;;;2.23;;
23288;SDS011;11813;50.834;4.280;2023-04-25T12:05:44;5.30;;;2.00;;
23288;SDS011;11813;50.834;4.280;2023-04-25T12:08:11;6.40;;;1.50;;
23288;SDS011;11813;50.834;4.280;2023-04-25T12:10:38;6.03;;;1.97;;
23288;SDS011;11813;50.834;4.280;2023-04-25T12:13:23;4.40;;;2.13;;
23288;SDS011;11813;50.834;4.280;2023-04-25T12:15:50;7.10;;;1.87;;
23288;SDS011;11813;50.834;4.280;2023-04-25T12:18:23;2.80;;;1.50;;
23288;SDS011;11813;50.834;4.280;2023-04-25T12:20:52;7.30;;;1.90;;
23288;SDS011;11813;50.834;4.280;2023-04-25T12:23:24;5.23;;;1.60;;
23288;SDS011;11813;50.834;4.280;2023-04-25T12:25:53;6.63;;;1.53;;
23288;SDS011;11813;50.834;4.280;2023-04-25T12:28:20;7.50;;;1.60;;
23288;SDS011;11813;50.834;4.280;2023-04-25T12:31:04;7.60;;;1.90;;
23288;SDS011;11813;50.834;4.280;2023-04-25T12:33:32;5.73;;;1.73;;
23288;SDS011;11813;50.834;4.280;2023-04-25T12:36:02;2.53;;;1.20;;
23288;SDS011;11813;50.834;4.280;2023-04-25T12:38:35;6.17;;;1.67;;
23288;SDS011;11813;50.834;4.280;2023-04-25T12:41:02;4.80;;;1.60;;
23288;SDS011;11813;50.834;4.280;2023-04-25T12:43:28;5.37;;;2.10;;
23288;SDS011;11813;50.834;4.280;2023-04-25T12:45:54;3.97;;;1.50;;
23288;SDS011;11813;50.834;4.280;2023-04-25T12:48:20;3.90;;;1.80;;
23288;SDS011;11813;50.834;4.280;2023-04-25T12:50:47;6.67;;;1.70;;
23288;SDS011;11813;50.834;4.280;2023-04-25T12:53:17;3.07;;;1.43;;
23288;SDS011;11813;50.834;4.280;2023-04-25T12:55:44;3.77;;;1.57;;
23288;SDS011;11813;50.834;4.280;2023-04-25T12:58:16;7.93;;;1.83;;
23288;SDS011;11813;50.834;4.280;2023-04-25T13:00:43;4.60;;;1.63;;
23288;SDS011;11813;50.834;4.280;2023-04-25T13:03:10;4.73;;;1.60;;
23288;SDS011;11813;50.834;4.280;2023-04-25T13:05:37;10.73;;;2.30;;
23288;SDS011;11813;50.834;4.280;2023-04-25T13:08:03;3.37;;;1.37;;
23288;SDS011;11813;50.834;4.280;2023-04-25T13:10:29;5.63;;;1.87;;
23288;SDS011;11813;50.834;4.280;2023-04-25T13:12:55;4.47;;;1.50;;
23288;SDS011;11813;50.834;4.280;2023-04-25T13:15:20;4.53;;;1.43;;
23288;SDS011;11813;50.834;4.280;2023-04-25T13:17:46;6.53;;;1.93;;
23288;SDS011;11813;50.834;4.280;2023-04-25T13:20:12;7.27;;;1.77;;
23288;SDS011;11813;50.834;4.280;2023-04-25T13:22:39;4.93;;;1.50;;
23288;SDS011;11813;50.834;4.280;2023-04-25T13:25:06;1.93;;;1.43;;
23288;SDS011;11813;50.834;4.280;2023-04-25T13:27:33;6.27;;;1.73;;
23288;SDS011;11813;50.834;4.280;2023-04-25T13:30:01;2.07;;;1.20;;
23288;SDS011;11813;50.834;4.280;2023-04-25T13:32:36;5.57;;;1.70;;
23288;SDS011;11813;50.834;4.280;2023-04-25T13:35:02;5.10;;;1.37;;
23288;SDS011;11813;50.834;4.280;2023-04-25T13:37:29;4.67;;;1.17;;
23288;SDS011;11813;50.834;4.280;2023-04-25T13:39:57;2.97;;;1.50;;
23288;SDS011;11813;50.834;4.280;2023-04-25T13:42:29;5.40;;;2.17;;
23288;SDS011;11813;50.834;4.280;2023-04-25T13:44:55;2.20;;;1.23;;
23288;SDS011;11813;50.834;4.280;2023-04-25T13:47:21;2.20;;;1.43;;
23288;SDS011;11813;50.834;4.280;2023-04-25T13:49:50;3.13;;;1.17;;
23288;SDS011;11813;50.834;4.280;2023-04-25T13:52:16;7.60;;;1.97;;
23288;SDS011;11813;50.834;4.280;2023-04-25T13:54:43;3.87;;;1.73;;
23288;SDS011;11813;50.834;4.280;2023-04-25T13:57:08;8.37;;;1.87;;
23288;SDS011;11813;50.834;4.280;2023-04-25T13:59:36;3.00;;;1.47;;
23288;SDS011;11813;50.834;4.280;2023-04-25T14:02:02;7.90;;;1.50;;
23288;SDS011;11813;50.834;4.280;2023-04-25T14:04:27;5.00;;;1.50;;
23288;SDS011;11813;50.834;4.280;2023-04-25T14:06:53;7.33;;;1.57;;
23288;SDS011;11813;50.834;4.280;2023-04-25T14:09:20;5.10;;;1.57;;
23288;SDS011;11813;50.834;4.280;2023-04-25T14:11:50;6.97;;;1.80;;
23288;SDS011;11813;50.834;4.280;2023-04-25T14:14:21;7.73;;;1.80;;
23288;SDS011;11813;50.834;4.280;2023-04-25T14:16:48;4.50;;;1.73;;
23288;SDS011;11813;50.834;4.280;2023-04-25T14:19:15;4.37;;;2.00;;
23288;SDS011;11813;50.834;4.280;2023-04-25T14:21:41;6.80;;;1.50;;
23288;SDS011;11813;50.834;4.280;2023-04-25T14:24:10;6.90;;;2.00;;
23288;SDS011;11813;50.834;4.280;2023-04-25T14:26:36;6.33;;;1.60;;
23288;SDS011;11813;50.834;4.280;2023-04-25T14:29:02;5.97;;;1.80;;
23288;SDS011;11813;50.834;4.280;2023-04-25T14:31:30;8.27;;;1.80;;
23288;SDS011;11813;50.834;4.280;2023-04-25T14:33:56;3.57;;;1.50;;
23288;SDS011;11813;50.834;4.280;2023-04-25T14:36:22;5.83;;;1.80;;
23288;SDS011;11813;50.834;4.280;2023-04-25T14:38:47;2.40;;;1.50;;
23288;SDS011;11813;50.834;4.280;2023-04-25T14:41:13;3.63;;;1.50;;
23288;SDS011;11813;50.834;4.280;2023-04-25T14:43:38;6.10;;;1.53;;
23288;SDS011;11813;50.834;4.280;2023-04-25T14:46:07;6.00;;;1.50;;